Time,TemperatureF,DewpointF,PressureIn,WindDirection,WindDirectionDegrees,WindSpeedMPH,WindSpeedGustMPH,Humidity,HourlyPrecipIn,Conditions,Clouds,dailyrainin,SoftwareType,DateUTC
2013-10-11 00:13:00,54.0,49.0,30.15,NE,46,2.0,3.0,84,0.00,,,0.00,,2013-10-11 04:13:00,
2013-10-11 00:24:00,54.0,49.0,30.15,East,81,0.0,2.0,82,0.00,,,0.00,,2013-10-11 04:24:00,
2013-10-11 00:44:00,54.0,49.0,30.15,ENE,70,1.0,3.0,83,0.00,,,0.00,,2013-10-11 04:44:00,
2013-10-11 00:53:00,54.0,49.0,30.15,ENE,72,1.0,3.0,82,0.00,,,0.00,,2013-10-11 04:53:00,
2013-10-11 01:13:00,55.0,50.0,30.15,NE,54,2.0,2.0,82,0.00,,,0.00,,2013-10-11 05:13:00,
2013-10-11 01:23:00,54.0,48.0,30.14,NE,41,2.0,3.0,81,0.00,,,0.00,,2013-10-11 05:23:00,
2013-10-11 01:43:00,55.0,49.0,30.14,ENE,61,2.0,3.0,81,0.00,,,0.00,,2013-10-11 05:43:00,
2013-10-11 01:52:00,55.0,49.0,30.14,ENE,57,1.0,2.0,79,0.00,,,0.00,,2013-10-11 05:52:00,
2013-10-11 02:12:00,55.0,49.0,30.14,NE,56,1.0,1.0,79,0.00,,,0.00,,2013-10-11 06:12:00,
2013-10-11 02:22:00,54.0,48.0,30.14,NNE,13,0.0,1.0,81,0.00,,,0.00,,2013-10-11 06:22:00,
2013-10-11 02:43:00,54.0,49.0,30.14,ENE,58,2.0,4.0,83,0.00,,,0.00,,2013-10-11 06:43:00,
2013-10-11 02:52:00,54.0,49.0,30.14,East,79,1.0,3.0,83,0.00,,,0.00,,2013-10-11 06:52:00,
2013-10-11 03:11:00,54.0,49.0,30.14,NE,50,2.0,3.0,83,0.00,,,0.00,,2013-10-11 07:11:00,
2013-10-11 03:22:00,53.0,48.0,30.14,ENE,64,2.0,3.0,84,0.00,,,0.00,,2013-10-11 07:22:00,
2013-10-11 03:42:00,52.0,48.0,30.13,NE,50,4.0,6.0,85,0.00,,,0.00,,2013-10-11 07:42:00,
2013-10-11 03:52:00,53.0,48.0,30.13,NE,46,2.0,4.0,84,0.00,,,0.00,,2013-10-11 07:52:00,
2013-10-11 04:12:00,53.0,48.0,30.13,NE,47,2.0,4.0,84,0.00,,,0.00,,2013-10-11 08:12:00,
2013-10-11 04:22:00,52.0,48.0,30.14,NNE,19,2.0,5.0,86,0.00,,,0.00,,2013-10-11 08:22:00,
2013-10-11 04:42:00,52.0,48.0,30.13,ENE,63,3.0,5.0,86,0.00,,,0.00,,2013-10-11 08:42:00,
2013-10-11 04:52:00,52.0,48.0,30.13,NE,43,3.0,5.0,86,0.00,,,0.00,,2013-10-11 08:52:00,
2013-10-11 05:12:00,52.0,48.0,30.13,NE,43,3.0,6.0,86,0.00,,,0.00,,2013-10-11 09:12:00,
2013-10-11 05:22:00,52.0,48.0,30.13,NE,36,3.0,6.0,86,0.00,,,0.00,,2013-10-11 09:22:00,
2013-10-11 05:43:00,52.0,48.0,30.14,NE,43,3.0,5.0,87,0.00,,,0.00,,2013-10-11 09:43:00,
2013-10-11 05:54:00,51.0,47.0,30.13,NE,50,1.0,3.0,87,0.00,,,0.00,,2013-10-11 09:54:00,
2013-10-11 06:12:00,51.0,48.0,30.13,ENE,63,2.0,5.0,88,0.00,,,0.00,,2013-10-11 10:12:00,
2013-10-11 06:23:00,51.0,48.0,30.13,NE,41,0.0,6.0,89,0.00,,,0.00,,2013-10-11 10:23:00,
2013-10-11 06:42:00,51.0,48.0,30.14,NNE,25,1.0,5.0,89,0.00,,,0.00,,2013-10-11 10:42:00,
2013-10-11 06:53:00,50.0,47.0,30.14,NNE,24,1.0,4.0,89,0.00,,,0.00,,2013-10-11 10:53:00,
2013-10-11 07:12:00,50.0,47.0,30.14,WNW,291,0.0,3.0,90,0.00,,,0.00,,2013-10-11 11:12:00,
2013-10-11 07:22:00,50.0,47.0,30.14,ENE,61,3.0,6.0,90,0.00,,,0.00,,2013-10-11 11:22:00,
2013-10-11 07:52:00,51.0,48.0,30.14,NE,39,4.0,6.0,88,0.00,,,0.00,,2013-10-11 11:52:00,
2013-10-11 08:12:00,52.0,48.0,30.14,NE,41,3.0,4.0,86,0.00,,,0.00,,2013-10-11 12:12:00,
2013-10-11 08:22:00,53.0,48.0,30.14,NE,51,3.0,5.0,83,0.00,,,0.00,,2013-10-11 12:22:00,
2013-10-11 08:42:00,52.0,48.0,30.14,NE,37,2.0,3.0,85,0.00,,,0.00,,2013-10-11 12:42:00,
2013-10-11 08:52:00,53.0,48.0,30.15,NE,43,3.0,5.0,82,0.00,,,0.00,,2013-10-11 12:52:00,
2013-10-11 09:12:00,53.0,47.0,30.16,NE,37,3.0,5.0,81,0.00,,,0.00,,2013-10-11 13:12:00,
2013-10-11 09:22:00,54.0,48.0,30.16,NE,43,4.0,5.0,80,0.00,,,0.00,,2013-10-11 13:22:00,
2013-10-11 09:43:00,54.0,48.0,30.16,NE,46,2.0,4.0,80,0.00,,,0.00,,2013-10-11 13:43:00,
2013-10-11 09:53:00,54.0,48.0,30.17,ENE,77,0.0,3.0,80,0.00,,,0.00,,2013-10-11 13:53:00,
2013-10-11 10:11:00,55.0,49.0,30.16,ENE,72,1.0,3.0,80,0.00,,,0.00,,2013-10-11 14:11:00,
2013-10-11 10:22:00,55.0,49.0,30.16,East,80,0.0,1.0,81,0.00,,,0.00,,2013-10-11 14:22:00,
2013-10-11 10:42:00,56.0,49.0,30.16,NNE,23,1.0,6.0,78,0.00,,,0.00,,2013-10-11 14:42:00,
2013-10-11 10:52:00,57.0,50.0,30.16,NW,318,2.0,6.0,76,0.00,,,0.00,,2013-10-11 14:52:00,
2013-10-11 11:11:00,58.0,50.0,30.16,North,359,2.0,7.0,75,0.00,,,0.00,,2013-10-11 15:11:00,
2013-10-11 11:22:00,59.0,50.0,30.16,NNE,26,2.0,6.0,72,0.00,,,0.00,,2013-10-11 15:22:00,
2013-10-11 11:44:00,60.0,51.0,30.16,NNE,19,0.0,4.0,72,0.00,,,0.00,,2013-10-11 15:44:00,
2013-10-11 11:54:00,61.0,52.0,30.16,NW,325,1.0,6.0,72,0.00,,,0.00,,2013-10-11 15:54:00,
2013-10-11 12:13:00,62.0,52.0,30.15,WNW,301,1.0,5.0,69,0.00,,,0.00,,2013-10-11 16:13:00,
2013-10-11 12:22:00,63.0,52.0,30.15,NNE,25,0.0,3.0,68,0.00,,,0.00,,2013-10-11 16:22:00,
2013-10-11 12:43:00,64.0,52.0,30.15,North,349,1.0,3.0,66,0.00,,,0.00,,2013-10-11 16:43:00,
2013-10-11 12:53:00,65.0,51.0,30.15,NNE,22,3.0,5.0,61,0.00,,,0.00,,2013-10-11 16:53:00,
2013-10-11 13:12:00,65.0,51.0,30.14,NNE,27,2.0,9.0,61,0.00,,,0.00,,2013-10-11 17:12:00,
2013-10-11 13:22:00,66.0,49.0,30.14,NNW,335,2.0,5.0,55,0.00,,,0.00,,2013-10-11 17:22:00,
2013-10-11 13:43:00,67.0,50.0,30.13,NE,36,0.0,4.0,55,0.00,,,0.00,,2013-10-11 17:43:00,
2013-10-11 13:53:00,67.0,48.0,30.12,NNE,18,2.0,4.0,51,0.00,,,0.00,,2013-10-11 17:53:00,
2013-10-11 14:43:00,69.0,47.0,30.11,NNE,17,1.0,5.0,45,0.00,,,0.00,,2013-10-11 18:43:00,
2013-10-11 14:52:00,69.0,47.0,30.11,NNE,17,1.0,5.0,45,0.00,,,0.00,,2013-10-11 18:52:00,
2013-10-11 15:11:00,69.0,46.0,30.10,NE,38,2.0,4.0,43,0.00,,,0.00,,2013-10-11 19:11:00,
2013-10-11 15:22:00,70.0,47.0,30.10,NW,326,0.0,3.0,44,0.00,,,0.00,,2013-10-11 19:22:00,
2013-10-11 15:42:00,71.0,49.0,30.09,NW,319,0.0,3.0,45,0.00,,,0.00,,2013-10-11 19:42:00,
2013-10-11 15:52:00,71.0,50.0,30.09,NW,316,0.0,5.0,48,0.00,,,0.00,,2013-10-11 19:52:00,
2013-10-11 16:12:00,71.0,49.0,30.09,NW,312,0.0,3.0,46,0.00,,,0.00,,2013-10-11 20:12:00,
2013-10-11 16:22:00,71.0,49.0,30.09,NW,312,0.0,3.0,46,0.00,,,0.00,,2013-10-11 20:22:00,
2013-10-11 16:43:00,70.0,49.0,30.09,NNW,345,0.0,4.0,47,0.00,,,0.00,,2013-10-11 20:43:00,
2013-10-11 16:53:00,70.0,50.0,30.09,WNW,288,1.0,5.0,49,0.00,,,0.00,,2013-10-11 20:53:00,
2013-10-11 17:12:00,70.0,51.0,30.09,NNE,33,1.0,6.0,51,0.00,,,0.00,,2013-10-11 21:12:00,
2013-10-11 17:22:00,70.0,50.0,30.10,NNW,339,1.0,3.0,50,0.00,,,0.00,,2013-10-11 21:22:00,
2013-10-11 17:55:00,70.0,52.0,30.09,West,270,0.0,2.0,53,0.00,,,0.00,,2013-10-11 21:55:00,
2013-10-11 18:24:00,68.0,51.0,30.09,NW,318,0.0,3.0,54,0.00,,,0.00,,2013-10-11 22:24:00,
2013-10-11 18:43:00,67.0,50.0,30.10,NNE,18,1.0,6.0,55,0.00,,,0.00,,2013-10-11 22:43:00,
2013-10-11 18:53:00,65.0,49.0,30.10,NE,53,1.0,4.0,57,0.00,,,0.00,,2013-10-11 22:53:00,
2013-10-11 19:12:00,64.0,50.0,30.10,NNW,336,0.0,2.0,61,0.00,,,0.00,,2013-10-11 23:12:00,
2013-10-11 19:22:00,62.0,50.0,30.10,NE,36,2.0,3.0,65,0.00,,,0.00,,2013-10-11 23:22:00,
2013-10-11 19:53:00,61.0,50.0,30.11,NNE,26,2.0,3.0,68,0.00,,,0.00,,2013-10-11 23:53:00,
2013-10-11 20:12:00,61.0,51.0,30.11,ENE,63,2.0,3.0,70,0.00,,,0.00,,2013-10-12 00:12:00,
2013-10-11 20:22:00,60.0,51.0,30.11,NNE,13,2.0,4.0,71,0.00,,,0.00,,2013-10-12 00:22:00,
2013-10-11 20:42:00,59.0,51.0,30.12,NW,323,1.0,4.0,74,0.00,,,0.00,,2013-10-12 00:42:00,
2013-10-11 20:53:00,58.0,50.0,30.12,NE,47,3.0,4.0,76,0.00,,,0.00,,2013-10-12 00:53:00,
2013-10-11 21:12:00,58.0,51.0,30.12,NE,44,3.0,4.0,77,0.00,,,0.00,,2013-10-12 01:12:00,
2013-10-11 21:22:00,58.0,51.0,30.12,NE,43,2.0,4.0,78,0.00,,,0.00,,2013-10-12 01:22:00,
2013-10-11 21:42:00,57.0,50.0,30.13,NE,39,1.0,4.0,78,0.00,,,0.00,,2013-10-12 01:42:00,
2013-10-11 21:52:00,57.0,51.0,30.13,NNE,32,1.0,3.0,80,0.00,,,0.00,,2013-10-12 01:52:00,
2013-10-11 22:12:00,57.0,51.0,30.13,NE,43,2.0,3.0,80,0.00,,,0.00,,2013-10-12 02:12:00,
2013-10-11 22:23:00,56.0,50.0,30.13,NE,41,3.0,4.0,81,0.00,,,0.00,,2013-10-12 02:23:00,
2013-10-11 22:42:00,56.0,51.0,30.13,NE,36,3.0,4.0,82,0.00,,,0.00,,2013-10-12 02:42:00,
2013-10-11 22:52:00,56.0,51.0,30.13,NE,44,2.0,4.0,82,0.00,,,0.00,,2013-10-12 02:52:00,
2013-10-11 23:12:00,56.0,50.0,30.13,NNE,32,3.0,6.0,80,0.00,,,0.00,,2013-10-12 03:12:00,
2013-10-11 23:23:00,56.0,50.0,30.13,NE,34,2.0,4.0,81,0.00,,,0.00,,2013-10-12 03:23:00,
2013-10-11 23:44:00,56.0,50.0,30.13,NE,45,3.0,5.0,81,0.00,,,0.00,,2013-10-12 03:44:00,
2013-10-11 23:54:00,55.0,50.0,30.13,NNE,25,3.0,4.0,82,0.00,,,0.00,,2013-10-12 03:54:00,